Time;durP1;ratioP1;P1;durP2;ratioP2;P2;SDS_P1;SDS_P2;PMS_P1;PMS_P2;Temp;Humidity;BMP_temperature;BMP_pressure;BME280_temperature;BME280_humidity;BME280_pressure;Samples;Min_cycle;Max_cycle;Signal;HPM_P1;HPM_P2
2021/11/17 02:25:50;;;;;;;;;;;4.80;99.90;;;;;;8397842;28;20328;-64
2021/11/17 02:29:57;;;;;;;;;;;4.60;99.90;;;;;;8323208;28;19913;-64
2021/11/17 02:34:04;;;;;;;;;;;4.80;99.90;;;;;;8378872;28;20505;-65
2021/11/17 02:38:11;;;;;;;;;;;4.70;99.90;;;;;;8412952;28;19916;-65
2021/11/17 02:42:21;;;;;;;;;;;4.80;99.90;;;;;;8430629;28;19961;-65
2021/11/17 02:46:21;;;;;;;;;;;4.70;99.90;;;;;;8429582;28;19908;-65
2021/11/17 02:50:37;;;;;;;;;;;4.80;99.90;;;;;;8430598;28;19914;-64
2021/11/17 02:54:50;;;;;;;;;;;4.90;99.90;;;;;;8412443;28;19908;-64
2021/11/17 02:59:04;;;;;;;;;;;4.90;99.90;;;;;;8428928;28;19981;-64
2021/11/17 03:03:10;;;;;;;;;;;4.60;99.90;;;;;;8430899;28;20167;-64
2021/11/17 03:07:10;;;;;;;;;;;4.60;99.90;;;;;;8428916;28;19912;-64
2021/11/17 03:11:23;;;;;;;;;;;4.70;99.90;;;;;;8430088;28;19955;-65
2021/11/17 03:15:36;;;;;;;;;;;4.80;99.90;;;;;;8428742;28;20513;-64
2021/11/17 03:19:38;;;;;;;;;;;4.80;99.90;;;;;;8429547;28;19993;-65
2021/11/17 03:23:41;;;;;;;;;;;4.60;99.90;;;;;;8430029;28;19912;-64
2021/11/17 03:28:00;;;;;;;;;;;4.50;99.90;;;;;;8418152;28;19909;-64
2021/11/17 03:32:01;;;;;;;;;;;4.50;99.90;;;;;;8395638;28;20297;-64
2021/11/17 03:36:30;;;;;;;;;;;4.50;99.90;;;;;;8428593;22;20011;-63
2021/11/17 03:40:48;;;;;;;;;;;4.60;99.90;;;;;;8388289;28;20366;-63
2021/11/17 03:44:55;;;;;;;;;;;4.50;99.90;;;;;;8428435;28;19908;-64
2021/11/17 03:49:02;;;;;;;;;;;4.70;99.90;;;;;;8410721;28;20566;-63
2021/11/17 03:53:08;;;;;;;;;;;4.80;99.90;;;;;;8428918;28;19908;-64
2021/11/17 03:57:21;;;;;;;;;;;4.80;99.90;;;;;;8421625;28;19912;-64
2021/11/17 04:01:24;;;;;;;;;;;4.90;99.90;;;;;;8394934;28;19920;-63
2021/11/17 04:05:49;;;;;;;;;;;4.60;99.90;;;;;;8394810;28;19918;-63
2021/11/17 04:10:10;;;;;;;;;;;4.60;99.90;;;;;;8394387;28;20388;-63
2021/11/17 04:14:19;;;;;;;;;;;4.70;99.90;;;;;;8376886;28;19909;-63
2021/11/17 04:18:20;;;;;;;;;;;4.90;99.90;;;;;;8376872;28;19909;-63
2021/11/17 04:22:33;;;;;;;;;;;4.90;99.90;;;;;;8394072;28;20482;-63
2021/11/17 04:26:45;;;;;;;;;;;4.80;99.90;;;;;;8378249;28;20002;-64
2021/11/17 04:31:05;;;;;;;;;;;4.70;99.90;;;;;;8427443;28;19939;-63
2021/11/17 04:35:11;;;;;;;;;;;4.80;99.90;;;;;;8427424;28;20408;-63
2021/11/17 04:39:11;;;;;;;;;;;4.80;99.90;;;;;;8427378;28;20331;-63
2021/11/17 04:43:30;;;;;;;;;;;4.80;99.90;;;;;;8427413;28;19916;-64
2021/11/17 04:47:38;;;;;;;;;;;4.80;99.90;;;;;;8425880;28;19916;-64
2021/11/17 04:51:51;;;;;;;;;;;4.80;99.90;;;;;;8409085;28;19951;-64
2021/11/17 04:55:54;;;;;;;;;;;4.70;99.90;;;;;;8408314;28;19951;-64
2021/11/17 05:00:13;;;;;;;;;;;4.80;99.90;;;;;;8426629;28;19912;-64
2021/11/17 05:04:16;;;;;;;;;;;5.00;99.90;;;;;;8394579;28;20748;-63
2021/11/17 05:08:29;;;;;;;;;;;4.90;99.90;;;;;;8419818;28;19912;-64
2021/11/17 05:12:48;;;;;;;;;;;4.90;99.90;;;;;;8423200;28;20285;-64
2021/11/17 05:16:51;;;;;;;;;;;5.00;99.90;;;;;;8404962;28;20297;-64
2021/11/17 05:20:58;;;;;;;;;;;5.10;99.90;;;;;;8419566;28;19916;-64
2021/11/17 05:24:58;;;;;;;;;;;5.00;99.90;;;;;;8420627;28;19912;-63
2021/11/17 05:29:02;;;;;;;;;;;5.10;99.90;;;;;;8401259;28;19909;-64
2021/11/17 05:33:11;;;;;;;;;;;5.10;99.90;;;;;;8411710;28;20290;-64
2021/11/17 05:37:11;;;;;;;;;;;5.10;99.90;;;;;;8410760;28;20378;-64
2021/11/17 05:41:18;;;;;;;;;;;5.20;99.90;;;;;;8410628;28;20003;-63
2021/11/17 05:45:37;;;;;;;;;;;5.10;99.90;;;;;;8399535;28;20187;-64
2021/11/17 05:49:38;;;;;;;;;;;5.00;99.90;;;;;;8415794;28;19935;-64
2021/11/17 05:53:57;;;;;;;;;;;4.80;99.90;;;;;;8407088;28;20030;-64
2021/11/17 05:58:01;;;;;;;;;;;4.80;99.90;;;;;;8365398;28;19912;-63
2021/11/17 06:02:04;;;;;;;;;;;4.70;99.90;;;;;;8388775;28;20355;-64
2021/11/17 06:06:04;;;;;;;;;;;4.70;99.90;;;;;;8390064;28;19966;-64
2021/11/17 06:10:07;;;;;;;;;;;4.70;99.90;;;;;;8396079;28;19912;-64
2021/11/17 06:14:09;;;;;;;;;;;4.70;99.90;;;;;;8396890;28;20401;-64
2021/11/17 06:18:12;;;;;;;;;;;4.80;99.90;;;;;;8413393;28;20302;-63
2021/11/17 06:22:15;;;;;;;;;;;4.70;99.90;;;;;;8409773;28;19923;-65
2021/11/17 06:26:19;;;;;;;;;;;4.80;99.90;;;;;;8420609;28;20007;-66
2021/11/17 06:30:21;;;;;;;;;;;5.00;99.90;;;;;;8423445;28;19927;-66
2021/11/17 06:34:23;;;;;;;;;;;4.90;99.90;;;;;;8407070;28;20451;-63
2021/11/17 06:38:24;;;;;;;;;;;4.70;99.90;;;;;;8427730;28;19989;-64
2021/11/17 06:42:27;;;;;;;;;;;4.80;99.90;;;;;;8415116;28;19964;-63
2021/11/17 06:46:27;;;;;;;;;;;4.90;99.90;;;;;;8411310;28;19927;-63
2021/11/17 06:50:28;;;;;;;;;;;4.90;99.90;;;;;;8405754;28;19912;-63
2021/11/17 06:54:28;;;;;;;;;;;4.80;99.90;;;;;;8410135;28;19916;-63
2021/11/17 06:58:29;;;;;;;;;;;4.70;99.90;;;;;;8424585;28;20043;-63
2021/11/17 07:02:29;;;;;;;;;;;4.80;99.90;;;;;;8428374;28;20046;-64
2021/11/17 07:06:30;;;;;;;;;;;4.70;99.90;;;;;;8427810;28;19919;-64
2021/11/17 07:10:32;;;;;;;;;;;4.80;99.90;;;;;;8423665;28;20062;-64
2021/11/17 07:14:33;;;;;;;;;;;4.80;99.90;;;;;;8404714;28;20663;-64
2021/11/17 07:18:34;;;;;;;;;;;4.70;99.90;;;;;;8394160;28;19916;-65
2021/11/17 07:22:35;;;;;;;;;;;4.60;99.90;;;;;;8415257;28;19930;-65
2021/11/17 07:26:35;;;;;;;;;;;4.70;99.90;;;;;;8420992;28;19949;-64
2021/11/17 07:30:38;;;;;;;;;;;4.70;99.90;;;;;;8422003;28;20251;-64
2021/11/17 07:34:39;;;;;;;;;;;4.60;99.90;;;;;;8423996;28;20416;-64
2021/11/17 07:38:39;;;;;;;;;;;4.70;99.90;;;;;;8398391;28;19956;-64
2021/11/17 07:42:40;;;;;;;;;;;4.60;99.90;;;;;;8425895;28;19927;-64
2021/11/17 07:46:41;;;;;;;;;;;4.50;99.90;;;;;;8422700;28;19912;-65
2021/11/17 07:50:42;;;;;;;;;;;4.50;99.90;;;;;;8422598;28;19919;-65
2021/11/17 07:54:43;;;;;;;;;;;4.50;99.90;;;;;;8404781;28;19916;-65
2021/11/17 07:58:45;;;;;;;;;;;4.60;99.90;;;;;;8424300;28;19993;-65
2021/11/17 08:02:46;;;;;;;;;;;4.70;99.90;;;;;;8420452;28;21091;-64
2021/11/17 08:06:47;;;;;;;;;;;4.70;99.90;;;;;;8421813;28;20336;-65
2021/11/17 08:10:48;;;;;;;;;;;4.70;99.90;;;;;;8423270;28;19920;-64
2021/11/17 08:14:49;;;;;;;;;;;4.90;99.90;;;;;;8421623;28;19908;-65
2021/11/17 08:18:49;;;;;;;;;;;4.90;99.90;;;;;;8404321;28;19912;-64
2021/11/17 08:22:52;;;;;;;;;;;5.00;99.90;;;;;;8421314;28;19984;-65
2021/11/17 08:26:52;;;;;;;;;;;5.00;99.90;;;;;;8414851;28;19913;-64
2021/11/17 08:30:53;;;;;;;;;;;5.00;99.90;;;;;;8420379;28;20320;-64
2021/11/17 08:34:53;;;;;;;;;;;5.00;99.90;;;;;;8414480;28;19924;-65
2021/11/17 08:38:54;;;;;;;;;;;5.20;99.90;;;;;;8420992;28;20370;-65
2021/11/17 08:42:55;;;;;;;;;;;5.00;99.90;;;;;;8424983;28;19962;-65
2021/11/17 08:46:56;;;;;;;;;;;5.20;99.90;;;;;;8420409;28;20335;-64
2021/11/17 08:50:58;;;;;;;;;;;5.20;99.90;;;;;;8406773;28;19956;-64
2021/11/17 08:54:58;;;;;;;;;;;5.40;99.90;;;;;;8422579;28;19965;-64
2021/11/17 08:58:59;;;;;;;;;;;5.60;99.90;;;;;;8419396;28;19912;-64
2021/11/17 09:03:00;;;;;;;;;;;5.80;99.90;;;;;;8420350;28;19923;-65
2021/11/17 09:07:01;;;;;;;;;;;5.80;99.90;;;;;;8419296;28;20002;-64
2021/11/17 09:11:04;;;;;;;;;;;5.90;99.90;;;;;;8420825;28;19920;-65
2021/11/17 09:15:06;;;;;;;;;;;6.00;99.90;;;;;;8420514;28;19982;-64
2021/11/17 09:19:07;;;;;;;;;;;5.90;99.90;;;;;;8405243;28;19913;-65
2021/11/17 09:23:09;;;;;;;;;;;6.00;99.90;;;;;;8424381;28;19923;-65
2021/11/17 09:27:10;;;;;;;;;;;6.00;99.90;;;;;;8415070;28;20267;-65
2021/11/17 09:31:11;;;;;;;;;;;6.10;99.90;;;;;;8409121;28;19919;-65
2021/11/17 09:35:13;;;;;;;;;;;6.00;99.90;;;;;;8441899;22;20699;-63
2021/11/17 09:39:14;;;;;;;;;;;5.90;99.90;;;;;;8411543;28;19927;-63
2021/11/17 09:43:17;;;;;;;;;;;6.00;99.90;;;;;;8409312;28;20529;-63
2021/11/17 09:47:20;;;;;;;;;;;6.00;99.90;;;;;;8399216;28;20336;-64
2021/11/17 09:51:23;;;;;;;;;;;6.10;99.90;;;;;;8415299;28;20026;-63
2021/11/17 09:55:33;;;;;;;;;;;6.20;99.90;;;;;;8400462;28;20374;-63
2021/11/17 09:59:42;;;;;;;;;;;6.20;99.90;;;;;;8391050;28;20023;-62
2021/11/17 10:03:49;;;;;;;;;;;6.20;99.90;;;;;;8416536;28;19916;-63
2021/11/17 10:12:57;;;;;;;;;;;6.00;99.90;;;;;;8412234;28;19924;-63
2021/11/17 10:16:30;;;;;;;;;;;6.20;99.90;;;;;;8401992;28;20302;-63
2021/11/17 10:20:34;;;;;;;;;;;6.10;99.90;;;;;;8403019;28;19963;-63
2021/11/17 10:24:41;;;;;;;;;;;6.20;99.90;;;;;;8391215;28;19958;-63
2021/11/17 10:28:47;;;;;;;;;;;6.20;99.90;;;;;;8413802;28;20423;-63
2021/11/17 10:33:03;;;;;;;;;;;6.10;99.90;;;;;;8420421;28;20011;-63
2021/11/17 10:37:04;;;;;;;;;;;6.00;99.90;;;;;;8406748;28;20431;-63
2021/11/17 10:41:16;;;;;;;;;;;5.90;99.90;;;;;;8408786;28;19981;-63
2021/11/17 10:45:25;;;;;;;;;;;5.90;99.90;;;;;;8409604;28;20306;-63
2021/11/17 10:49:27;;;;;;;;;;;5.90;99.90;;;;;;8411719;28;19916;-63
2021/11/17 10:53:31;;;;;;;;;;;5.80;99.90;;;;;;8405363;28;19965;-63
2021/11/17 10:57:34;;;;;;;;;;;5.90;99.90;;;;;;8404822;28;19913;-63
2021/11/17 11:01:39;;;;;;;;;;;5.70;99.90;;;;;;8395204;28;19927;-62
2021/11/17 11:05:52;;;;;;;;;;;6.00;99.90;;;;;;8396080;28;19913;-63
2021/11/17 11:09:57;;;;;;;;;;;6.00;99.90;;;;;;8384965;28;19922;-62
2021/11/17 11:14:06;;;;;;;;;;;5.90;99.90;;;;;;8419415;28;19915;-62
2021/11/17 11:18:09;;;;;;;;;;;5.70;99.90;;;;;;8423746;28;20401;-63
2021/11/17 11:22:13;;;;;;;;;;;5.70;99.90;;;;;;8426325;28;19916;-62
2021/11/17 11:26:20;;;;;;;;;;;5.90;99.90;;;;;;8425191;28;19961;-62
2021/11/17 11:30:34;;;;;;;;;;;5.90;99.90;;;;;;8427749;28;19914;-62
2021/11/17 11:34:34;;;;;;;;;;;5.80;99.90;;;;;;8428137;28;19919;-63
2021/11/17 11:38:35;;;;;;;;;;;5.70;99.90;;;;;;8394923;28;19921;-63
2021/11/17 11:42:55;;;;;;;;;;;5.60;99.90;;;;;;8389623;28;20394;-63
2021/11/17 11:46:55;;;;;;;;;;;5.70;99.90;;;;;;8376214;28;19954;-63
2021/11/17 11:50:58;;;;;;;;;;;5.90;99.90;;;;;;8405509;28;19912;-63
2021/11/17 11:55:02;;;;;;;;;;;5.90;99.90;;;;;;8413031;28;19912;-62
2021/11/17 11:59:05;;;;;;;;;;;6.00;99.90;;;;;;8385969;28;19913;-63
2021/11/17 12:03:07;;;;;;;;;;;5.80;99.90;;;;;;8392062;28;19981;-63
2021/11/17 12:07:09;;;;;;;;;;;5.80;99.90;;;;;;8397137;28;19920;-62
2021/11/17 12:11:12;;;;;;;;;;;5.90;99.90;;;;;;8379607;28;20290;-63
2021/11/17 12:15:19;;;;;;;;;;;6.00;99.90;;;;;;8402762;28;19924;-62
2021/11/17 12:19:30;;;;;;;;;;;6.00;99.90;;;;;;8417921;28;19916;-62
2021/11/17 12:23:37;;;;;;;;;;;6.00;99.90;;;;;;8383059;28;19920;-63
2021/11/17 12:27:37;;;;;;;;;;;6.00;99.90;;;;;;8404907;28;20006;-63
2021/11/17 12:31:49;;;;;;;;;;;6.10;99.90;;;;;;8410802;28;19912;-63
2021/11/17 12:36:05;;;;;;;;;;;6.00;99.90;;;;;;8415469;28;19985;-63
2021/11/17 12:40:08;;;;;;;;;;;6.10;99.90;;;;;;8392599;28;19919;-62
2021/11/17 12:44:20;;;;;;;;;;;6.20;99.90;;;;;;8392886;28;19912;-63
2021/11/17 12:48:28;;;;;;;;;;;6.10;99.90;;;;;;8391858;28;20426;-63
2021/11/17 12:52:34;;;;;;;;;;;5.90;99.90;;;;;;8420508;28;21270;-63
2021/11/17 12:56:34;;;;;;;;;;;6.10;99.90;;;;;;8424187;28;20009;-63
2021/11/17 13:00:34;;;;;;;;;;;6.30;99.90;;;;;;8395168;28;20282;-63
2021/11/17 13:04:41;;;;;;;;;;;6.20;99.90;;;;;;8425696;28;19967;-63
2021/11/17 13:08:41;;;;;;;;;;;5.90;99.90;;;;;;8398476;28;20243;-63
2021/11/17 13:12:42;;;;;;;;;;;5.90;99.90;;;;;;8398274;28;19913;-63
2021/11/17 13:16:45;;;;;;;;;;;5.90;99.90;;;;;;8391155;28;19908;-63
2021/11/17 13:20:45;;;;;;;;;;;6.00;99.90;;;;;;8384773;28;19912;-63
2021/11/17 13:24:48;;;;;;;;;;;6.00;99.90;;;;;;8418597;28;19912;-63
2021/11/17 13:28:50;;;;;;;;;;;6.10;99.90;;;;;;8418855;28;20297;-63
2021/11/17 13:32:51;;;;;;;;;;;5.90;99.90;;;;;;8411527;28;19919;-63
2021/11/17 13:36:52;;;;;;;;;;;5.90;99.90;;;;;;8407172;28;19916;-63
2021/11/17 13:40:55;;;;;;;;;;;5.90;99.90;;;;;;8391795;28;19912;-63
2021/11/17 13:44:56;;;;;;;;;;;5.80;99.90;;;;;;8415004;28;19989;-63
2021/11/17 13:48:57;;;;;;;;;;;6.10;99.90;;;;;;8407141;28;20426;-63
2021/11/17 13:52:57;;;;;;;;;;;6.20;99.90;;;;;;8408029;28;19912;-64
2021/11/17 13:57:00;;;;;;;;;;;6.10;99.90;;;;;;8419343;28;19948;-63
2021/11/17 14:01:00;;;;;;;;;;;6.00;99.90;;;;;;8407298;28;20412;-64
2021/11/17 14:05:01;;;;;;;;;;;6.00;99.90;;;;;;8408849;28;19916;-64
2021/11/17 14:09:02;;;;;;;;;;;6.00;99.90;;;;;;8410403;28;20294;-65
2021/11/17 14:13:04;;;;;;;;;;;6.00;99.90;;;;;;8413394;28;19912;-65
2021/11/17 14:17:05;;;;;;;;;;;6.00;99.90;;;;;;8391125;28;19920;-64
2021/11/17 14:21:07;;;;;;;;;;;5.90;99.90;;;;;;8401415;28;19912;-64
2021/11/17 14:25:11;;;;;;;;;;;6.00;99.90;;;;;;8399299;28;19920;-64
2021/11/17 14:29:15;;;;;;;;;;;5.90;99.90;;;;;;8408558;28;20312;-64
2021/11/17 14:33:20;;;;;;;;;;;5.90;99.90;;;;;;8426548;28;19916;-64
2021/11/17 14:37:21;;;;;;;;;;;5.90;99.90;;;;;;8421539;28;20461;-64
2021/11/17 14:41:22;;;;;;;;;;;5.90;99.90;;;;;;8941869;22;20014;-63
2021/11/17 14:45:24;;;;;;;;;;;5.80;99.90;;;;;;8420352;28;19924;-65
2021/11/17 14:49:24;;;;;;;;;;;5.90;99.90;;;;;;8409797;28;20285;-64
2021/11/17 14:53:25;;;;;;;;;;;5.90;99.90;;;;;;8453021;28;19979;-65
2021/11/17 14:57:25;;;;;;;;;;;5.90;99.90;;;;;;8445040;28;19912;-64
2021/11/17 15:01:29;;;;;;;;;;;5.90;99.90;;;;;;8436524;28;19915;-64
2021/11/17 15:05:30;;;;;;;;;;;5.80;99.90;;;;;;8465298;28;19912;-64
2021/11/17 15:09:31;;;;;;;;;;;5.90;99.90;;;;;;8465467;28;19998;-64
2021/11/17 15:13:32;;;;;;;;;;;5.90;99.90;;;;;;8464248;28;20140;-64
2021/11/17 15:17:32;;;;;;;;;;;5.80;99.90;;;;;;8445741;22;19924;-60
2021/11/17 15:21:33;;;;;;;;;;;5.80;99.90;;;;;;8406443;28;19916;-60
2021/11/17 15:25:35;;;;;;;;;;;5.70;99.90;;;;;;8402220;28;19912;-60
2021/11/17 15:29:37;;;;;;;;;;;5.60;99.90;;;;;;8406446;28;20407;-60
2021/11/17 15:33:38;;;;;;;;;;;5.60;99.90;;;;;;8407898;28;19919;-60
2021/11/17 15:37:39;;;;;;;;;;;5.50;99.90;;;;;;8412328;28;20354;-61
2021/11/17 15:41:40;;;;;;;;;;;5.50;99.90;;;;;;8417597;28;19916;-60
2021/11/17 15:45:41;;;;;;;;;;;5.40;99.90;;;;;;8422722;28;19919;-60
2021/11/17 15:49:43;;;;;;;;;;;5.70;99.90;;;;;;8403151;28;19912;-60
2021/11/17 15:53:44;;;;;;;;;;;5.60;99.90;;;;;;8407937;28;19912;-60
2021/11/17 15:57:44;;;;;;;;;;;5.50;99.90;;;;;;8415947;28;19913;-60
2021/11/17 16:01:46;;;;;;;;;;;5.60;99.90;;;;;;8420016;28;19935;-63
2021/11/17 16:05:46;;;;;;;;;;;5.60;99.90;;;;;;8396414;28;19928;-63
2021/11/17 16:09:54;;;;;;;;;;;5.60;99.90;;;;;;8395209;28;20301;-64
2021/11/17 16:13:55;;;;;;;;;;;5.70;99.90;;;;;;8399579;28;20436;-65
2021/11/17 16:17:56;;;;;;;;;;;5.60;99.90;;;;;;8396569;28;19923;-63
2021/11/17 16:21:57;;;;;;;;;;;5.50;99.90;;;;;;8424011;28;19920;-63
2021/11/17 16:26:05;;;;;;;;;;;5.40;99.90;;;;;;8450021;28;19916;-62
2021/11/17 16:30:11;;;;;;;;;;;5.40;99.90;;;;;;8427491;28;20369;-62
2021/11/17 16:34:11;;;;;;;;;;;5.30;99.90;;;;;;8444595;28;20014;-62
2021/11/17 16:38:12;;;;;;;;;;;5.30;99.90;;;;;;8456948;28;19911;-62
2021/11/17 16:42:14;;;;;;;;;;;5.20;99.90;;;;;;8438499;28;19915;-62
2021/11/17 16:46:16;;;;;;;;;;;5.20;99.90;;;;;;8423377;28;19916;-63
2021/11/17 16:50:17;;;;;;;;;;;5.20;99.90;;;;;;8394374;28;20335;-63
2021/11/17 16:54:18;;;;;;;;;;;5.20;99.90;;;;;;8420761;28;19951;-63
2021/11/17 16:58:20;;;;;;;;;;;5.20;99.90;;;;;;8425579;28;19908;-62
2021/11/17 17:02:21;;;;;;;;;;;5.30;99.90;;;;;;8403987;28;19923;-62
2021/11/17 17:06:25;;;;;;;;;;;5.20;99.90;;;;;;8399000;28;19935;-62
2021/11/17 17:10:26;;;;;;;;;;;5.10;99.90;;;;;;8414236;28;20321;-63
2021/11/17 17:14:27;;;;;;;;;;;5.20;99.90;;;;;;8400241;28;19917;-63
2021/11/17 17:18:27;;;;;;;;;;;5.20;99.90;;;;;;8421971;28;19916;-63
2021/11/17 17:22:28;;;;;;;;;;;5.10;99.90;;;;;;8419528;28;19924;-62
2021/11/17 17:26:29;;;;;;;;;;;5.10;99.90;;;;;;8425626;28;20377;-62
2021/11/17 17:30:29;;;;;;;;;;;5.20;99.90;;;;;;8454610;28;19912;-63
2021/11/17 17:34:30;;;;;;;;;;;5.00;99.90;;;;;;8456800;28;19918;-64
2021/11/17 17:38:31;;;;;;;;;;;5.00;99.90;;;;;;8456018;28;19965;-62
2021/11/17 17:42:31;;;;;;;;;;;5.10;99.90;;;;;;8436034;28;20408;-62
2021/11/17 17:46:32;;;;;;;;;;;5.00;99.90;;;;;;8429055;28;19919;-63
2021/11/17 17:50:35;;;;;;;;;;;5.10;99.90;;;;;;8411043;28;19987;-62
2021/11/17 17:54:36;;;;;;;;;;;5.00;99.90;;;;;;8419632;28;19912;-63
2021/11/17 17:58:38;;;;;;;;;;;4.90;99.90;;;;;;8410788;28;19923;-64
2021/11/17 18:02:39;;;;;;;;;;;4.90;99.90;;;;;;8374548;28;20562;-62
2021/11/17 18:06:41;;;;;;;;;;;4.90;99.90;;;;;;8398108;28;19912;-63
2021/11/17 18:10:42;;;;;;;;;;;4.90;99.90;;;;;;8402587;28;19912;-63
2021/11/17 18:14:43;;;;;;;;;;;4.90;99.90;;;;;;8417345;28;20385;-63
2021/11/17 18:18:43;;;;;;;;;;;5.00;99.90;;;;;;8427650;28;19916;-62
2021/11/17 18:22:44;;;;;;;;;;;4.90;99.90;;;;;;8406254;28;19916;-63
2021/11/17 18:26:49;;;;;;;;;;;4.90;99.90;;;;;;8412852;28;20444;-63
2021/11/17 18:30:51;;;;;;;;;;;4.80;99.90;;;;;;8413229;28;19969;-63
2021/11/17 18:34:52;;;;;;;;;;;5.00;99.90;;;;;;8413979;28;20394;-63
2021/11/17 18:38:53;;;;;;;;;;;4.90;99.90;;;;;;8397017;28;19983;-63
2021/11/17 18:42:57;;;;;;;;;;;4.80;99.90;;;;;;8417715;28;19954;-64
2021/11/17 18:46:58;;;;;;;;;;;4.90;99.90;;;;;;8415228;28;19916;-63
2021/11/17 18:51:00;;;;;;;;;;;4.90;99.90;;;;;;8417933;28;19987;-63
2021/11/17 18:55:01;;;;;;;;;;;5.00;99.90;;;;;;8410137;28;19919;-63
2021/11/17 18:59:01;;;;;;;;;;;5.00;99.90;;;;;;8416729;28;19912;-62
2021/11/17 19:03:02;;;;;;;;;;;5.00;99.90;;;;;;8407473;28;19938;-62
2021/11/17 19:07:02;;;;;;;;;;;5.00;99.90;;;;;;8408198;28;20433;-63
2021/11/17 19:11:07;;;;;;;;;;;5.00;99.90;;;;;;8412706;28;19908;-62
2021/11/17 19:15:07;;;;;;;;;;;4.90;99.90;;;;;;8393573;28;19965;-62
2021/11/17 19:19:09;;;;;;;;;;;4.90;99.90;;;;;;8412254;28;19922;-62
2021/11/17 19:23:10;;;;;;;;;;;4.90;99.90;;;;;;8409784;28;19917;-62
2021/11/17 19:27:11;;;;;;;;;;;5.00;99.90;;;;;;8404032;28;19935;-62
2021/11/17 19:31:12;;;;;;;;;;;5.00;99.90;;;;;;8414080;28;19952;-62
2021/11/17 19:35:12;;;;;;;;;;;4.90;99.90;;;;;;8411324;28;19912;-62
2021/11/17 19:39:13;;;;;;;;;;;4.90;99.90;;;;;;8410193;28;19995;-62
2021/11/17 19:43:16;;;;;;;;;;;4.90;99.90;;;;;;8410875;28;20382;-63
2021/11/17 19:47:17;;;;;;;;;;;4.80;99.90;;;;;;8409239;28;19909;-63
2021/11/17 19:51:17;;;;;;;;;;;5.00;99.90;;;;;;8396971;28;19916;-62
2021/11/17 19:55:18;;;;;;;;;;;5.00;99.90;;;;;;8408014;28;19999;-62
2021/11/17 19:59:20;;;;;;;;;;;5.00;99.90;;;;;;8424934;28;19912;-62
2021/11/17 20:03:21;;;;;;;;;;;5.20;99.90;;;;;;8427834;28;19969;-62
2021/11/17 20:07:23;;;;;;;;;;;5.00;99.90;;;;;;8423747;28;19935;-63
2021/11/17 20:11:24;;;;;;;;;;;5.00;99.90;;;;;;8381770;28;20393;-62
2021/11/17 20:15:26;;;;;;;;;;;5.20;99.90;;;;;;8406003;28;19972;-62
2021/11/17 20:19:29;;;;;;;;;;;5.10;99.90;;;;;;8417718;28;20403;-62
2021/11/17 20:23:30;;;;;;;;;;;4.90;99.90;;;;;;8416226;28;20012;-63
2021/11/17 20:27:30;;;;;;;;;;;4.90;99.90;;;;;;8412564;28;19908;-62
2021/11/17 20:31:31;;;;;;;;;;;4.70;99.90;;;;;;8387840;28;19912;-62
2021/11/17 20:35:32;;;;;;;;;;;4.80;99.90;;;;;;8409017;28;19917;-63
2021/11/17 20:39:33;;;;;;;;;;;4.90;99.90;;;;;;8385840;28;19912;-62
2021/11/17 20:43:33;;;;;;;;;;;4.80;99.90;;;;;;8405228;28;19912;-62
2021/11/17 20:47:34;;;;;;;;;;;4.70;99.90;;;;;;8412577;28;19915;-62
2021/11/17 20:51:34;;;;;;;;;;;4.70;99.90;;;;;;8394425;28;19909;-62
2021/11/17 20:55:35;;;;;;;;;;;4.70;99.90;;;;;;8391931;28;19939;-63
2021/11/17 20:59:36;;;;;;;;;;;4.50;99.90;;;;;;8389942;28;20003;-62
2021/11/17 21:03:37;;;;;;;;;;;4.50;99.90;;;;;;8371537;28;19917;-62
2021/11/17 21:07:38;;;;;;;;;;;4.60;99.90;;;;;;8388543;28;19919;-62
2021/11/17 21:11:40;;;;;;;;;;;4.60;99.90;;;;;;8393643;28;19912;-62
2021/11/17 21:15:41;;;;;;;;;;;4.50;99.90;;;;;;8416607;28;19916;-65
2021/11/17 21:19:42;;;;;;;;;;;4.80;99.90;;;;;;8426647;28;19915;-64
2021/11/17 21:23:43;;;;;;;;;;;4.80;99.90;;;;;;8426655;28;19912;-64
2021/11/17 21:27:43;;;;;;;;;;;4.70;99.90;;;;;;8425619;28;19908;-64
2021/11/17 21:31:44;;;;;;;;;;;4.60;99.90;;;;;;8426402;28;19915;-64
2021/11/17 21:35:45;;;;;;;;;;;4.50;99.90;;;;;;8425660;28;19952;-65
2021/11/17 21:39:47;;;;;;;;;;;4.50;99.90;;;;;;8431147;28;19919;-64
2021/11/17 21:43:49;;;;;;;;;;;4.50;99.90;;;;;;8429090;28;20020;-64
2021/11/17 21:47:49;;;;;;;;;;;4.50;99.90;;;;;;8398788;28;19910;-64
2021/11/17 21:51:50;;;;;;;;;;;4.70;99.90;;;;;;8399298;28;19995;-64
2021/11/17 21:55:50;;;;;;;;;;;4.70;99.90;;;;;;8398235;28;19951;-65
2021/11/17 21:59:52;;;;;;;;;;;4.70;99.90;;;;;;8399260;28;19908;-64
2021/11/17 22:03:52;;;;;;;;;;;4.70;99.90;;;;;;8398706;28;19948;-64
2021/11/17 22:07:53;;;;;;;;;;;4.50;99.90;;;;;;8398795;28;19909;-64
2021/11/17 22:11:54;;;;;;;;;;;4.40;99.90;;;;;;8398760;28;19908;-64
2021/11/17 22:15:54;;;;;;;;;;;4.50;99.90;;;;;;8406036;28;19992;-64
2021/11/17 22:19:55;;;;;;;;;;;4.70;99.90;;;;;;8398424;28;19916;-64
2021/11/17 22:23:56;;;;;;;;;;;4.70;99.90;;;;;;8397948;28;19960;-65
2021/11/17 22:27:56;;;;;;;;;;;4.80;99.90;;;;;;8397486;28;20278;-65
2021/11/17 22:31:57;;;;;;;;;;;4.70;99.90;;;;;;8397757;28;19919;-64
2021/11/17 22:35:57;;;;;;;;;;;4.80;99.90;;;;;;8414799;28;19923;-64
2021/11/17 22:39:59;;;;;;;;;;;4.70;99.90;;;;;;8431235;28;20292;-65
2021/11/17 22:44:00;;;;;;;;;;;4.80;99.90;;;;;;8420234;28;19954;-64
2021/11/17 22:48:00;;;;;;;;;;;5.10;99.90;;;;;;8417724;28;19913;-65
2021/11/17 22:52:01;;;;;;;;;;;4.90;99.90;;;;;;8407935;28;19912;-65
2021/11/17 22:56:02;;;;;;;;;;;4.80;99.90;;;;;;8411562;28;20041;-64
2021/11/17 23:00:23;;;;;;;;;;;4.90;99.90;;;;;;8413321;28;19962;-64
2021/11/17 23:04:24;;;;;;;;;;;5.00;99.90;;;;;;8412541;28;19921;-64
2021/11/17 23:08:24;;;;;;;;;;;4.90;99.90;;;;;;8396253;28;20429;-64
2021/11/17 23:12:25;;;;;;;;;;;5.00;99.90;;;;;;8403815;28;19915;-64
2021/11/17 23:16:25;;;;;;;;;;;4.90;99.90;;;;;;8421535;28;19923;-65
2021/11/17 23:20:27;;;;;;;;;;;5.00;99.90;;;;;;8429998;28;19912;-64
2021/11/17 23:24:28;;;;;;;;;;;4.90;99.90;;;;;;8411789;28;19916;-65
2021/11/17 23:28:29;;;;;;;;;;;4.90;99.90;;;;;;8429650;28;20443;-65
2021/11/17 23:32:30;;;;;;;;;;;4.80;99.90;;;;;;8429617;28;19955;-65
2021/11/17 23:36:31;;;;;;;;;;;4.80;99.90;;;;;;8429430;28;19908;-65
2021/11/17 23:40:32;;;;;;;;;;;5.00;99.90;;;;;;8429495;28;19915;-64
2021/11/17 23:44:33;;;;;;;;;;;4.90;99.90;;;;;;8420259;28;19963;-64
2021/11/17 23:48:36;;;;;;;;;;;4.90;99.90;;;;;;8428872;28;19908;-64
2021/11/17 23:52:36;;;;;;;;;;;5.00;99.90;;;;;;8382305;28;19916;-64
2021/11/17 23:56:37;;;;;;;;;;;4.90;99.90;;;;;;8377345;28;19916;-64
